createdAt,value
2018-05-16T00:01:56.615Z,73.00
2018-05-16T00:04:59.942Z,72.90
2018-05-16T00:08:03.243Z,71.70
2018-05-16T00:11:07.457Z,70.30
2018-05-16T00:14:11.670Z,70.50
2018-05-16T00:17:14.971Z,70.50
2018-05-16T00:20:19.129Z,70.30
2018-05-16T00:23:22.453Z,70.20
2018-05-16T00:26:25.816Z,72.00
2018-05-16T00:29:29.137Z,73.20
2018-05-16T00:32:32.485Z,73.50
2018-05-16T00:35:35.796Z,73.90
2018-05-16T00:38:39.865Z,74.80
2018-05-16T00:41:43.219Z,74.80
2018-05-16T00:44:46.559Z,75.50
2018-05-16T00:47:49.908Z,76.30
2018-05-16T00:51:10.994Z,76.40
2018-05-16T00:54:14.304Z,76.40
2018-05-16T00:57:18.501Z,77.10
2018-05-16T01:00:21.946Z,77.00
2018-05-16T01:03:25.301Z,77.30
2018-05-16T01:06:28.629Z,77.50
2018-05-16T01:09:32.103Z,78.30
2018-05-16T01:12:36.734Z,78.20
2018-05-16T01:15:40.838Z,78.00
2018-05-16T01:18:44.212Z,78.00
2018-05-16T01:21:47.575Z,77.20
2018-05-16T01:24:51.014Z,76.50
2018-05-16T01:27:54.359Z,76.30
2018-05-16T01:30:57.726Z,76.10
2018-05-16T01:34:01.838Z,76.50
2018-05-16T01:37:05.181Z,76.40
2018-05-16T01:40:08.524Z,76.60
2018-05-16T01:43:13.345Z,77.30
2018-05-16T01:46:16.741Z,77.30
2018-05-16T01:49:20.787Z,77.80
2018-05-16T01:52:24.884Z,78.60
2018-05-16T01:55:28.262Z,78.60
2018-05-16T01:58:31.634Z,78.20
2018-05-16T02:01:34.952Z,77.60
2018-05-16T02:04:38.305Z,78.10
2018-05-16T02:07:41.654Z,78.60
2018-05-16T02:10:44.965Z,78.50
2018-05-16T02:13:49.151Z,78.00
2018-05-16T02:16:52.561Z,78.00
2018-05-16T02:19:55.880Z,78.90
2018-05-16T02:22:59.250Z,79.10
2018-05-16T02:26:02.569Z,79.50
2018-05-16T02:29:07.397Z,79.80
2018-05-16T02:32:11.601Z,79.90
2018-05-16T02:35:15.029Z,79.90
2018-05-16T02:38:19.192Z,79.90
2018-05-16T02:41:22.611Z,79.90
2018-05-16T02:44:26.018Z,80.00
2018-05-16T02:47:29.378Z,79.80
2018-05-16T02:50:32.800Z,79.60
2018-05-16T02:53:36.218Z,79.60
2018-05-16T02:56:39.582Z,79.90
2018-05-16T02:59:42.916Z,80.60
2018-05-16T03:02:46.277Z,80.10
2018-05-16T03:05:49.789Z,80.20
2018-05-16T03:08:53.171Z,80.10
2018-05-16T03:11:56.582Z,80.10
2018-05-16T03:14:59.927Z,80.50
2018-05-16T03:18:03.282Z,81.40
2018-05-16T03:21:06.625Z,80.60
2018-05-16T03:24:09.985Z,80.30
2018-05-16T03:27:13.414Z,79.40
2018-05-16T03:30:17.533Z,79.10
2018-05-16T03:33:20.866Z,79.10
2018-05-16T03:36:24.241Z,79.10
2018-05-16T03:39:27.552Z,79.30
2018-05-16T03:42:30.901Z,79.20
2018-05-16T03:45:34.963Z,79.30
2018-05-16T03:48:38.335Z,79.40
2018-05-16T03:51:41.635Z,80.20
2018-05-16T03:54:45.021Z,81.40
2018-05-16T04:01:46.927Z,83.90
2018-05-16T04:04:50.241Z,84.60
2018-05-16T04:07:53.606Z,85.80
2018-05-16T04:10:56.920Z,86.40
2018-05-16T04:14:00.263Z,86.60
2018-05-16T04:17:03.610Z,86.90
2018-05-16T04:20:07.038Z,86.30
2018-05-16T04:23:10.442Z,84.80
2018-05-16T04:26:13.848Z,82.80
2018-05-16T04:29:17.161Z,81.00
2018-05-16T04:32:21.278Z,79.60
2018-05-16T04:35:25.400Z,78.90
2018-05-16T04:38:29.583Z,78.60
2018-05-16T04:41:32.893Z,78.60
2018-05-16T04:44:37.011Z,77.10
2018-05-16T04:47:41.102Z,76.40
2018-05-16T04:50:44.456Z,76.50
2018-05-16T04:53:47.792Z,75.40
2018-05-16T04:56:51.154Z,74.30
2018-05-16T04:59:54.446Z,73.50
2018-05-16T05:02:57.833Z,72.70
2018-05-16T05:06:01.192Z,72.10
2018-05-16T05:09:04.579Z,71.20
2018-05-16T05:12:07.985Z,70.50
2018-05-16T05:15:11.337Z,70.40
2018-05-16T05:18:14.690Z,69.70
2018-05-16T05:21:18.869Z,69.50
2018-05-16T05:24:22.210Z,69.50
2018-05-16T05:27:26.325Z,68.90
2018-05-16T05:30:30.401Z,69.30
2018-05-16T05:33:33.754Z,69.30
2018-05-16T05:36:37.095Z,69.10
2018-05-16T05:39:40.447Z,68.70
2018-05-16T05:42:43.777Z,68.60
2018-05-16T05:45:47.198Z,68.20
2018-05-16T05:48:50.536Z,68.20
2018-05-16T05:51:53.998Z,67.80
2018-05-16T05:54:57.393Z,67.50
2018-05-16T05:58:00.789Z,67.20
2018-05-16T06:01:04.165Z,67.00
2018-05-16T06:04:07.526Z,66.80
2018-05-16T06:07:10.843Z,67.10
2018-05-16T06:10:14.190Z,66.60
2018-05-16T06:13:18.294Z,67.90
2018-05-16T06:16:21.652Z,67.00
2018-05-16T06:19:25.133Z,67.50
2018-05-16T06:22:28.434Z,66.20
2018-05-16T06:25:31.763Z,65.70
2018-05-16T06:28:35.133Z,62.70
2018-05-16T06:31:38.462Z,64.70
2018-05-16T06:34:41.868Z,63.80
2018-05-16T06:37:45.149Z,65.80
2018-05-16T06:40:48.521Z,66.20
2018-05-16T06:43:51.959Z,66.00
2018-05-16T06:46:55.350Z,68.90
2018-05-16T06:49:58.669Z,65.30
2018-05-16T06:53:02.853Z,68.20
2018-05-16T06:56:06.142Z,68.10
2018-05-16T06:59:09.501Z,68.60
2018-05-16T07:02:12.831Z,69.70
2018-05-16T07:05:16.177Z,68.80
2018-05-16T07:08:20.383Z,65.50
2018-05-16T07:11:24.502Z,66.20
2018-05-16T07:14:28.585Z,66.30
2018-05-16T07:17:31.949Z,66.20
2018-05-16T07:20:35.293Z,64.80
2018-05-16T07:23:39.511Z,63.20
2018-05-16T07:26:42.905Z,63.20
2018-05-16T07:29:46.297Z,63.10
2018-05-16T07:32:49.616Z,61.10
2018-05-16T07:35:53.737Z,59.60
2018-05-16T07:38:57.921Z,59.50
2018-05-16T07:42:01.263Z,59.50
2018-05-16T07:45:04.640Z,59.60
2018-05-16T07:48:08.775Z,57.90
2018-05-16T07:51:12.202Z,57.80
2018-05-16T07:54:15.483Z,57.90
2018-05-16T07:57:18.811Z,56.90
2018-05-16T08:00:22.161Z,55.90
2018-05-16T08:03:25.478Z,56.40
2018-05-16T08:06:28.841Z,56.70
2018-05-16T08:09:32.930Z,55.90
2018-05-16T08:12:36.239Z,55.80
2018-05-16T08:15:39.553Z,56.10
2018-05-16T08:18:42.888Z,56.10
2018-05-16T08:21:46.285Z,55.90
2018-05-16T08:24:50.370Z,55.20
2018-05-16T08:27:53.720Z,55.30
2018-05-16T08:30:57.098Z,53.00
2018-05-16T08:34:00.526Z,54.20
2018-05-16T08:37:03.914Z,53.20
2018-05-16T08:40:07.237Z,51.50
2018-05-16T08:43:11.365Z,52.30
2018-05-16T08:46:14.678Z,52.30
2018-05-16T08:49:18.005Z,52.90
2018-05-16T08:52:21.323Z,52.70
2018-05-16T08:55:24.657Z,52.40
2018-05-16T08:58:28.089Z,54.20
2018-05-16T09:01:31.402Z,53.50
2018-05-16T09:04:35.526Z,55.80
2018-05-16T09:07:38.847Z,55.70
2018-05-16T09:10:42.183Z,55.00
2018-05-16T09:13:45.674Z,56.20
2018-05-16T09:16:48.961Z,56.60
2018-05-16T09:19:52.347Z,54.80
2018-05-16T09:22:55.680Z,54.00
2018-05-16T09:25:58.996Z,55.50
2018-05-16T09:29:02.338Z,57.50
2018-05-16T09:32:05.664Z,57.30
2018-05-16T09:35:09.001Z,58.20
2018-05-16T09:38:13.192Z,57.50
2018-05-16T09:41:16.575Z,57.50
2018-05-16T09:44:19.896Z,58.20
2018-05-16T09:47:23.261Z,59.50
2018-05-16T09:50:27.484Z,57.70
2018-05-16T09:53:30.811Z,58.90
2018-05-16T09:56:34.135Z,58.50
2018-05-16T09:59:37.462Z,56.60
2018-05-16T10:02:40.789Z,56.80
2018-05-16T10:05:44.133Z,56.10
2018-05-16T10:08:47.457Z,55.40
2018-05-16T10:11:50.790Z,55.40
2018-05-16T10:14:54.114Z,55.00
2018-05-16T10:17:57.438Z,56.10
2018-05-16T10:21:00.832Z,55.40
2018-05-16T10:24:04.453Z,56.10
2018-05-16T10:27:07.908Z,55.00
2018-05-16T10:30:11.207Z,55.20
2018-05-16T10:33:14.566Z,54.00
2018-05-16T10:36:17.895Z,55.80
2018-05-16T10:39:21.217Z,56.30
2018-05-16T10:42:24.559Z,55.70
2018-05-16T10:45:27.847Z,55.10
2018-05-16T10:48:32.005Z,53.20
2018-05-16T10:51:35.623Z,53.10
2018-05-16T10:54:39.514Z,53.30
2018-05-16T10:57:42.845Z,53.10
2018-05-16T11:00:46.183Z,52.90
2018-05-16T11:03:50.284Z,52.90
2018-05-16T11:06:54.378Z,50.70
2018-05-16T11:09:57.717Z,50.60
2018-05-16T11:13:01.770Z,49.30
2018-05-16T11:16:05.143Z,49.10
2018-05-16T11:19:08.487Z,47.70
2018-05-16T11:22:11.796Z,46.60
2018-05-16T11:25:15.222Z,45.20
2018-05-16T11:28:18.585Z,48.00
2018-05-16T11:31:21.991Z,45.50
2018-05-16T11:34:25.322Z,46.00
2018-05-16T11:37:28.651Z,45.70
2018-05-16T11:40:32.052Z,47.70
2018-05-16T11:43:35.494Z,46.60
2018-05-16T11:46:39.577Z,46.70
2018-05-16T11:49:42.978Z,46.60
2018-05-16T11:52:46.301Z,45.10
2018-05-16T11:55:50.505Z,45.40
2018-05-16T11:58:54.688Z,44.60
2018-05-16T12:01:58.002Z,44.10
2018-05-16T12:05:01.475Z,47.20
2018-05-16T12:08:05.537Z,43.90
2018-05-16T12:11:09.717Z,43.70
2018-05-16T12:14:12.996Z,43.70
2018-05-16T12:17:16.301Z,43.60
2018-05-16T12:20:19.772Z,44.60
2018-05-16T12:23:23.088Z,45.10
2018-05-16T12:26:26.497Z,42.10
2018-05-16T12:29:30.855Z,44.80
2018-05-16T12:32:35.049Z,46.10
2018-05-16T12:35:38.438Z,46.10
2018-05-16T12:38:41.855Z,46.20
2018-05-16T12:41:45.184Z,46.70
2018-05-16T12:44:48.531Z,45.90
2018-05-16T12:47:51.934Z,45.80
2018-05-16T12:50:55.338Z,46.20
2018-05-16T12:54:00.262Z,40.30
2018-05-16T12:57:03.670Z,40.30
2018-05-16T13:00:07.006Z,39.70
2018-05-16T13:03:10.352Z,42.60
2018-05-16T13:06:13.699Z,41.50
2018-05-16T13:09:17.105Z,43.90
2018-05-16T13:12:20.441Z,41.60
2018-05-16T13:15:24.536Z,41.10
2018-05-16T13:18:27.945Z,40.70
2018-05-16T13:21:31.310Z,42.10
2018-05-16T13:24:35.362Z,42.30
2018-05-16T13:27:38.687Z,42.90
2018-05-16T13:30:42.804Z,44.40
2018-05-16T13:33:46.979Z,43.10
2018-05-16T13:36:50.313Z,43.30
2018-05-16T13:39:54.500Z,43.90
2018-05-16T13:42:58.565Z,43.80
2018-05-16T13:46:02.061Z,41.80
2018-05-16T13:49:05.392Z,42.90
2018-05-16T13:52:08.714Z,42.40
2018-05-16T13:55:12.027Z,40.10
2018-05-16T13:58:15.368Z,41.30
2018-05-16T14:01:18.668Z,41.50
2018-05-16T14:04:22.030Z,41.40
2018-05-16T14:07:25.347Z,43.60
2018-05-16T14:10:28.790Z,41.30
2018-05-16T14:13:32.149Z,43.80
2018-05-16T14:16:35.478Z,42.20
2018-05-16T14:19:38.865Z,42.40
2018-05-16T14:22:42.184Z,41.60
2018-05-16T14:25:45.518Z,39.70
2018-05-16T14:28:48.872Z,40.00
2018-05-16T14:31:52.204Z,39.80
2018-05-16T14:34:55.538Z,40.00
2018-05-16T14:37:58.871Z,39.10
2018-05-16T14:41:02.990Z,39.70
2018-05-16T14:44:07.185Z,39.10
2018-05-16T14:47:10.529Z,39.00
2018-05-16T14:50:13.878Z,39.10
2018-05-16T14:53:17.200Z,40.50
2018-05-16T14:56:21.315Z,42.00
2018-05-16T14:59:25.501Z,44.00
2018-05-16T15:02:28.801Z,43.90
2018-05-16T15:05:33.023Z,43.70
2018-05-16T15:08:36.418Z,43.60
2018-05-16T15:11:39.763Z,43.70
2018-05-16T15:14:43.095Z,44.30
2018-05-16T15:17:46.453Z,43.90
2018-05-16T15:20:49.820Z,43.90
2018-05-16T15:23:53.897Z,43.30
2018-05-16T15:26:57.189Z,43.30
2018-05-16T15:30:00.596Z,42.60
2018-05-16T15:33:04.004Z,41.50
2018-05-16T15:36:08.068Z,42.30
2018-05-16T15:39:11.402Z,42.30
2018-05-16T15:42:14.801Z,41.60
2018-05-16T15:45:18.169Z,41.30
2018-05-16T15:48:21.497Z,40.70
2018-05-16T15:51:24.852Z,41.70
2018-05-16T15:54:28.309Z,42.70
2018-05-16T15:57:31.700Z,41.20
2018-05-16T16:00:35.052Z,41.60
2018-05-16T16:03:38.347Z,41.60
2018-05-16T16:06:41.741Z,41.60
2018-05-16T16:09:45.039Z,41.80
2018-05-16T16:12:48.398Z,40.30
2018-05-16T16:15:52.550Z,39.40
2018-05-16T16:18:55.890Z,39.40
2018-05-16T16:21:59.247Z,38.00
2018-05-16T16:25:02.560Z,37.80
2018-05-16T16:28:05.904Z,38.30
2018-05-16T16:31:10.000Z,38.00
2018-05-16T16:34:13.337Z,38.00
2018-05-16T16:37:16.788Z,39.60
2018-05-16T16:40:20.187Z,38.50
2018-05-16T16:43:23.505Z,38.60
2018-05-16T16:46:27.634Z,38.40
2018-05-16T16:49:31.011Z,38.40
2018-05-16T16:52:35.119Z,38.90
2018-05-16T16:55:39.239Z,39.10
2018-05-16T16:58:43.332Z,38.70
2018-05-16T17:01:46.687Z,38.70
2018-05-16T17:04:50.084Z,38.50
2018-05-16T17:07:53.446Z,39.50
2018-05-16T17:10:57.634Z,39.30
2018-05-16T17:14:01.020Z,39.30
2018-05-16T17:17:04.365Z,39.70
2018-05-16T17:20:08.484Z,42.60
2018-05-16T17:23:11.824Z,42.60
2018-05-16T17:26:15.171Z,43.60
2018-05-16T17:29:19.245Z,45.60
2018-05-16T17:32:22.603Z,45.70
2018-05-16T17:35:25.960Z,47.00
2018-05-16T17:38:30.072Z,48.70
2018-05-16T17:41:33.447Z,48.70
2018-05-16T17:44:36.779Z,49.40
2018-05-16T17:47:40.882Z,50.70
2018-05-16T17:50:44.973Z,51.10
2018-05-16T17:53:48.455Z,51.10
2018-05-16T17:56:52.618Z,50.20
2018-05-16T17:59:56.857Z,52.70
2018-05-16T18:03:00.183Z,52.70
2018-05-16T18:06:03.559Z,53.50
2018-05-16T18:09:06.898Z,53.80
2018-05-16T18:12:10.249Z,53.80
2018-05-16T18:15:31.695Z,53.40
2018-05-16T18:18:35.113Z,52.20
2018-05-16T18:21:38.458Z,53.10
2018-05-16T18:24:41.789Z,55.00
2018-05-16T18:27:45.132Z,54.40
2018-05-16T18:30:49.243Z,54.80
2018-05-16T18:33:53.424Z,55.80
2018-05-16T18:36:56.769Z,55.80
2018-05-16T18:40:00.086Z,56.30
2018-05-16T18:43:03.528Z,56.60
2018-05-16T18:46:07.220Z,57.30
2018-05-16T18:49:10.700Z,57.60
2018-05-16T18:52:14.129Z,57.40
2018-05-16T18:55:17.474Z,58.10
2018-05-16T18:58:20.830Z,58.70
2018-05-16T19:01:24.190Z,58.70
2018-05-16T19:04:27.626Z,59.10
2018-05-16T19:07:31.000Z,59.90
2018-05-16T19:10:34.361Z,60.00
2018-05-16T19:13:37.686Z,60.90
2018-05-16T19:16:41.105Z,61.10
2018-05-16T19:19:44.520Z,61.40
2018-05-16T19:22:47.861Z,61.80
2018-05-16T19:25:51.153Z,61.80
2018-05-16T19:28:54.517Z,62.10
2018-05-16T19:31:58.629Z,63.10
2018-05-16T19:35:02.867Z,63.50
2018-05-16T19:38:06.220Z,63.40
2018-05-16T19:41:09.552Z,63.30
2018-05-16T19:44:13.643Z,64.40
2018-05-16T19:47:17.035Z,64.50
2018-05-16T19:50:20.414Z,64.70
2018-05-16T19:53:23.834Z,65.30
2018-05-16T19:56:27.216Z,66.20
2018-05-16T19:59:30.619Z,66.50
2018-05-16T20:02:33.970Z,67.60
2018-05-16T20:05:37.329Z,67.90
2018-05-16T20:08:40.661Z,68.10
2018-05-16T20:11:44.044Z,68.40
2018-05-16T20:14:47.448Z,69.10
2018-05-16T20:17:51.557Z,69.80
2018-05-16T20:20:54.887Z,69.70
2018-05-16T20:23:58.172Z,71.00
2018-05-16T20:27:01.618Z,71.50
2018-05-16T20:30:05.809Z,72.50
2018-05-16T20:33:09.157Z,72.50
2018-05-16T20:36:13.805Z,72.90
2018-05-16T20:39:17.153Z,72.80
2018-05-16T20:42:20.726Z,73.30
2018-05-16T20:45:24.124Z,73.60
2018-05-16T20:48:27.386Z,73.90
2018-05-16T20:51:30.678Z,73.80
2018-05-16T20:54:34.049Z,74.20
2018-05-16T20:57:37.429Z,74.50
2018-05-16T21:00:40.768Z,74.80
2018-05-16T21:03:44.111Z,74.90
2018-05-16T21:06:47.463Z,75.40
2018-05-16T21:09:50.844Z,76.20
2018-05-16T21:12:55.042Z,76.10
2018-05-16T21:15:58.438Z,76.10
2018-05-16T21:19:02.057Z,77.40
2018-05-16T21:22:06.521Z,78.00
2018-05-16T21:25:09.987Z,77.50
2018-05-16T21:28:13.506Z,77.60
2018-05-16T21:31:17.043Z,77.80
2018-05-16T21:34:20.598Z,77.80
2018-05-16T21:37:24.361Z,77.80
2018-05-16T21:40:27.908Z,78.30
2018-05-16T21:43:31.713Z,78.30
2018-05-16T21:46:35.062Z,78.50
2018-05-16T21:49:38.647Z,78.80
2018-05-16T21:52:42.262Z,79.00
2018-05-16T21:55:46.073Z,79.00
2018-05-16T21:58:49.446Z,79.30
2018-05-16T22:01:52.781Z,79.30
2018-05-16T22:04:56.111Z,79.50
2018-05-16T22:08:00.257Z,79.70
2018-05-16T22:11:04.033Z,80.20
2018-05-16T22:14:07.381Z,80.30
2018-05-16T22:17:10.731Z,80.60
2018-05-16T22:20:14.027Z,81.10
2018-05-16T22:23:17.391Z,81.30
2018-05-16T22:26:21.482Z,82.00
2018-05-16T22:29:25.429Z,81.50
2018-05-16T22:32:35.061Z,81.50
2018-05-16T22:35:44.775Z,81.50
2018-05-16T22:38:53.631Z,81.50
2018-05-16T22:42:03.331Z,81.70
2018-05-16T22:48:47.402Z,80.50
2018-05-16T22:51:50.812Z,81.30
2018-05-16T22:54:54.153Z,81.60
2018-05-16T22:57:58.277Z,81.70
2018-05-16T23:01:01.572Z,81.70
2018-05-16T23:04:04.933Z,81.70
2018-05-16T23:07:08.265Z,81.60
2018-05-16T23:10:11.622Z,82.20
2018-05-16T23:13:14.977Z,82.30
2018-05-16T23:16:18.315Z,82.40
2018-05-16T23:19:21.645Z,82.70
2018-05-16T23:22:25.823Z,82.70
2018-05-16T23:25:29.126Z,82.70
2018-05-16T23:28:33.330Z,82.30
2018-05-16T23:31:36.734Z,82.20
2018-05-16T23:34:40.141Z,82.40
2018-05-16T23:37:43.537Z,82.40
2018-05-16T23:40:46.906Z,82.60
2018-05-16T23:43:50.247Z,82.70
2018-05-16T23:46:54.458Z,82.90
2018-05-16T23:49:58.563Z,82.90
2018-05-16T23:53:01.982Z,84.00
2018-05-16T23:56:06.062Z,84.00
2018-05-16T23:59:09.402Z,84.00
